createdAt,value
2023-04-16T00:00:49.616Z,5.22
2023-04-16T00:03:20.102Z,6.63
2023-04-16T00:05:50.379Z,5.57
2023-04-16T00:08:20.726Z,5.50
2023-04-16T00:10:51.010Z,12.63
2023-04-16T00:13:21.269Z,5.95
2023-04-16T00:15:51.317Z,4.22
2023-04-16T00:18:23.405Z,2.92
2023-04-16T00:20:54.662Z,4.50
2023-04-16T00:23:26.533Z,4.63
2023-04-16T00:25:58.399Z,6.28
2023-04-16T00:28:28.914Z,4.25
2023-04-16T00:30:59.006Z,5.75
2023-04-16T00:33:31.264Z,3.10
2023-04-16T00:36:03.546Z,5.07
2023-04-16T00:38:33.805Z,7.25
2023-04-16T00:41:03.854Z,5.70
2023-04-16T00:43:33.984Z,8.00
2023-04-16T00:46:06.378Z,6.22
2023-04-16T00:48:39.101Z,6.13
2023-04-16T00:51:10.631Z,5.07
2023-04-16T00:53:40.964Z,9.55
2023-04-16T00:56:12.453Z,5.70
2023-04-16T00:58:42.628Z,5.30
2023-04-16T01:01:13.069Z,11.88
2023-04-16T01:03:47.653Z,8.27
2023-04-16T01:06:20.962Z,7.03
2023-04-16T01:08:51.430Z,7.35
2023-04-16T01:11:22.326Z,7.28
2023-04-16T01:13:52.511Z,9.43
2023-04-16T01:16:22.765Z,8.45
2023-04-16T01:18:52.719Z,6.47
2023-04-16T01:21:22.843Z,9.60
2023-04-16T01:23:52.916Z,8.63
2023-04-16T01:26:23.013Z,10.45
2023-04-16T01:28:53.129Z,5.63
2023-04-16T01:31:23.211Z,9.68
2023-04-16T01:34:04.964Z,7.88
2023-04-16T01:36:35.486Z,13.13
2023-04-16T01:39:05.747Z,7.10
2023-04-16T01:41:35.765Z,6.75
2023-04-16T01:44:05.938Z,10.38
2023-04-16T01:46:37.770Z,10.60
2023-04-16T01:49:08.683Z,8.68
2023-04-16T01:51:38.907Z,6.63
2023-04-16T01:54:08.764Z,4.63
2023-04-16T01:56:38.610Z,7.43
2023-04-16T01:59:09.490Z,7.57
2023-04-16T02:01:43.732Z,10.65
2023-04-16T02:04:14.266Z,8.20
2023-04-16T02:06:44.416Z,7.22
2023-04-16T02:11:46.098Z,7.80
2023-04-16T02:14:16.152Z,6.97
2023-04-16T02:16:46.770Z,11.52
2023-04-16T02:19:29.094Z,7.25
2023-04-16T02:21:59.149Z,5.88
2023-04-16T02:24:29.426Z,10.18
2023-04-16T02:27:01.847Z,6.45
2023-04-16T02:29:33.065Z,4.75
2023-04-16T02:32:11.084Z,4.53
2023-04-16T02:34:45.052Z,3.80
2023-04-16T02:37:16.543Z,7.30
2023-04-16T02:39:48.587Z,5.07
2023-04-16T02:42:18.623Z,4.78
2023-04-16T02:44:48.793Z,6.40
2023-04-16T02:47:18.647Z,6.75
2023-04-16T02:49:48.672Z,5.22
2023-04-16T02:52:18.488Z,5.18
2023-04-16T02:54:48.661Z,8.18
2023-04-16T02:57:18.751Z,5.38
2023-04-16T02:59:48.850Z,4.03
2023-04-16T03:02:19.031Z,5.00
2023-04-16T03:04:49.144Z,5.57
2023-04-16T03:07:19.587Z,7.47
2023-04-16T03:09:49.623Z,5.57
2023-04-16T03:12:19.628Z,7.05
2023-04-16T03:14:49.636Z,4.70
2023-04-16T03:17:20.633Z,6.07
2023-04-16T03:19:52.044Z,6.10
2023-04-16T03:22:22.387Z,6.30
2023-04-16T03:24:52.730Z,5.05
2023-04-16T03:27:22.688Z,4.95
2023-04-16T03:29:52.679Z,6.63
2023-04-16T03:32:22.787Z,5.65
2023-04-16T03:34:52.697Z,9.02
2023-04-16T03:37:23.054Z,8.48
2023-04-16T03:39:53.884Z,7.18
2023-04-16T03:42:24.415Z,5.60
2023-04-16T03:44:54.951Z,7.20
2023-04-16T03:47:25.443Z,6.10
2023-04-16T03:49:58.574Z,5.97
2023-04-16T03:52:29.771Z,11.85
2023-04-16T03:54:59.787Z,4.80
2023-04-16T03:57:32.776Z,5.35
2023-04-16T04:00:10.860Z,6.80
2023-04-16T04:03:00.182Z,7.10
2023-04-16T04:05:30.589Z,6.85
2023-04-16T04:08:01.758Z,6.05
2023-04-16T04:10:37.099Z,6.68
2023-04-16T04:13:09.004Z,8.80
2023-04-16T04:15:39.492Z,6.70
2023-04-16T04:18:09.512Z,7.13
2023-04-16T04:20:43.011Z,5.63
2023-04-16T04:23:17.349Z,10.13
2023-04-16T04:25:48.990Z,3.90
2023-04-16T04:28:21.098Z,3.80
2023-04-16T04:30:51.108Z,4.25
2023-04-16T04:33:21.602Z,5.88
2023-04-16T04:35:53.898Z,5.28
2023-04-16T04:38:26.743Z,4.45
2023-04-16T04:40:57.168Z,7.45
2023-04-16T04:45:58.581Z,7.53
2023-04-16T04:48:30.740Z,6.47
2023-04-16T04:51:03.508Z,5.80
2023-04-16T04:53:35.041Z,9.45
2023-04-16T04:56:11.632Z,7.00
2023-04-16T04:58:43.657Z,4.90
2023-04-16T05:01:13.745Z,6.07
2023-04-16T05:03:43.996Z,4.00
2023-04-16T05:06:15.120Z,6.63
2023-04-16T05:08:45.272Z,6.68
2023-04-16T05:11:15.257Z,4.80
2023-04-16T05:13:45.226Z,4.30
2023-04-16T05:16:15.261Z,5.82
2023-04-16T05:18:45.275Z,5.13
2023-04-16T05:21:15.244Z,5.53
2023-04-16T05:23:45.192Z,5.78
2023-04-16T05:26:15.216Z,4.93
2023-04-16T05:28:45.179Z,8.55
2023-04-16T05:31:15.228Z,5.30
2023-04-16T05:33:45.223Z,4.97
2023-04-16T05:36:16.181Z,6.38
2023-04-16T05:38:46.115Z,6.28
2023-04-16T05:41:16.104Z,6.03
2023-04-16T05:43:46.037Z,4.38
2023-04-16T05:46:16.049Z,5.13
2023-04-16T05:48:46.052Z,7.40
2023-04-16T05:51:16.037Z,5.00
2023-04-16T05:53:46.095Z,6.10
2023-04-16T05:56:16.072Z,8.43
2023-04-16T05:58:46.908Z,5.93
2023-04-16T06:01:17.104Z,12.02
2023-04-16T06:03:47.249Z,11.02
2023-04-16T06:06:17.316Z,5.55
2023-04-16T06:08:47.532Z,4.82
2023-04-16T06:11:17.548Z,4.40
2023-04-16T06:13:47.485Z,4.13
2023-04-16T06:16:17.356Z,5.90
2023-04-16T06:18:47.440Z,4.03
2023-04-16T06:21:18.139Z,6.90
2023-04-16T06:23:48.148Z,7.07
2023-04-16T06:26:18.378Z,8.52
2023-04-16T06:28:48.503Z,7.68
2023-04-16T06:31:18.632Z,6.97
2023-04-16T06:33:48.686Z,6.95
2023-04-16T06:36:18.527Z,6.18
2023-04-16T06:38:48.334Z,9.15
2023-04-16T06:41:18.363Z,7.82
2023-04-16T06:43:48.359Z,8.07
2023-04-16T06:46:18.524Z,6.30
2023-04-16T06:48:48.591Z,7.78
2023-04-16T06:51:19.593Z,5.20
2023-04-16T06:53:50.339Z,5.50
2023-04-16T06:56:20.318Z,5.05
2023-04-16T06:58:50.492Z,4.30
2023-04-16T07:01:20.898Z,9.77
2023-04-16T07:03:51.226Z,7.93
2023-04-16T07:06:21.452Z,6.40
2023-04-16T07:08:51.467Z,9.82
2023-04-16T07:11:22.150Z,5.70
2023-04-16T07:13:52.420Z,7.20
2023-04-16T07:16:22.671Z,10.55
2023-04-16T07:18:53.709Z,5.40
2023-04-16T07:21:24.441Z,9.65
2023-04-16T07:23:54.375Z,5.10
2023-04-16T07:26:24.511Z,9.00
2023-04-16T07:28:54.461Z,6.03
2023-04-16T07:31:24.532Z,6.18
2023-04-16T07:33:54.854Z,6.55
2023-04-16T07:36:24.846Z,4.90
2023-04-16T07:38:54.751Z,6.18
2023-04-16T07:41:25.100Z,7.70
2023-04-16T07:43:55.047Z,5.80
2023-04-16T07:46:28.332Z,5.68
2023-04-16T07:49:03.306Z,6.75
2023-04-16T07:51:33.382Z,6.68
2023-04-16T07:54:03.333Z,5.05
2023-04-16T07:56:33.484Z,8.25
2023-04-16T07:59:14.861Z,6.03
2023-04-16T08:01:51.893Z,5.10
2023-04-16T08:04:26.269Z,11.38
2023-04-16T08:06:56.924Z,9.32
2023-04-16T08:09:30.044Z,5.68
2023-04-16T08:12:01.905Z,5.53
2023-04-16T08:14:32.070Z,6.53
2023-04-16T08:17:02.042Z,8.05
2023-04-16T08:19:32.307Z,7.65
2023-04-16T08:22:02.362Z,6.50
2023-04-16T08:24:32.488Z,5.45
2023-04-16T08:27:11.553Z,7.88
2023-04-16T08:29:47.634Z,10.75
2023-04-16T08:32:17.714Z,10.40
2023-04-16T08:34:47.814Z,8.52
2023-04-16T08:37:17.791Z,10.25
2023-04-16T08:39:47.763Z,11.75
2023-04-16T08:42:35.014Z,7.93
2023-04-16T08:45:20.584Z,8.48
2023-04-16T08:47:52.995Z,8.77
2023-04-16T08:50:27.661Z,7.70
2023-04-16T08:53:08.089Z,8.65
2023-04-16T08:55:40.607Z,9.57
2023-04-16T08:58:20.726Z,8.45
2023-04-16T09:00:52.463Z,6.68
2023-04-16T09:03:23.457Z,7.78
2023-04-16T09:05:55.702Z,9.90
2023-04-16T09:08:27.053Z,9.30
2023-04-16T09:10:58.398Z,9.45
2023-04-16T09:13:28.761Z,11.02
2023-04-16T09:15:59.302Z,12.65
2023-04-16T09:18:29.652Z,8.45
2023-04-16T09:20:59.857Z,10.05
2023-04-16T09:23:30.842Z,6.20
2023-04-16T09:26:01.540Z,11.77
2023-04-16T09:29:00.811Z,9.27
2023-04-16T09:31:30.844Z,10.90
2023-04-16T09:34:07.106Z,7.40
2023-04-16T09:36:38.298Z,11.13
2023-04-16T09:39:08.572Z,9.13
2023-04-16T09:41:40.938Z,11.35
2023-04-16T09:44:10.929Z,9.27
2023-04-16T09:46:44.393Z,9.25
2023-04-16T09:49:19.737Z,6.72
2023-04-16T09:51:53.930Z,6.35
2023-04-16T09:54:24.053Z,7.40
2023-04-16T09:56:59.044Z,10.18
2023-04-16T09:59:35.046Z,13.70
2023-04-16T10:02:15.886Z,9.05
2023-04-16T10:04:53.398Z,10.40
2023-04-16T10:07:23.899Z,9.15
2023-04-16T10:09:54.880Z,7.70
2023-04-16T10:12:25.711Z,7.68
2023-04-16T10:14:55.997Z,9.43
2023-04-16T10:17:27.910Z,6.82
2023-04-16T10:19:59.697Z,6.25
2023-04-16T10:22:29.659Z,6.07
2023-04-16T10:25:01.208Z,12.00
2023-04-16T10:27:31.996Z,7.60
2023-04-16T10:30:02.773Z,6.13
2023-04-16T10:32:34.042Z,7.07
2023-04-16T10:35:04.183Z,6.05
2023-04-16T10:37:34.520Z,7.72
2023-04-16T10:40:27.511Z,7.10
2023-04-16T10:43:02.653Z,10.75
2023-04-16T10:45:34.401Z,7.75
2023-04-16T10:48:08.108Z,6.20
2023-04-16T10:50:39.175Z,6.88
2023-04-16T10:53:28.984Z,5.07
2023-04-16T10:56:05.761Z,6.25
2023-04-16T10:58:37.864Z,5.80
2023-04-16T11:01:15.524Z,6.97
2023-04-16T11:03:49.338Z,7.80
2023-04-16T11:06:27.645Z,7.72
2023-04-16T11:08:57.717Z,6.63
2023-04-16T11:11:29.065Z,6.50
2023-04-16T11:13:59.103Z,7.00
2023-04-16T11:16:29.167Z,5.25
2023-04-16T11:18:59.453Z,8.23
2023-04-16T11:21:29.776Z,6.38
2023-04-16T11:24:00.566Z,9.63
2023-04-16T11:26:34.194Z,6.50
2023-04-16T11:29:14.891Z,7.10
2023-04-16T11:31:51.515Z,5.60
2023-04-16T11:34:22.444Z,7.50
2023-04-16T11:36:53.635Z,8.40
2023-04-16T11:39:24.440Z,8.00
2023-04-16T11:41:54.538Z,8.98
2023-04-16T11:44:29.153Z,10.68
2023-04-16T11:46:59.399Z,8.27
2023-04-16T11:49:30.570Z,9.48
2023-04-16T11:52:01.535Z,7.75
2023-04-16T11:54:35.905Z,6.28
2023-04-16T11:57:07.388Z,4.68
2023-04-16T11:59:38.249Z,6.15
2023-04-16T12:02:37.755Z,6.53
2023-04-16T12:05:29.695Z,8.95
2023-04-16T12:08:03.567Z,6.93
2023-04-16T12:10:38.967Z,5.05
2023-04-16T12:13:18.854Z,5.25
2023-04-16T12:15:57.119Z,5.22
2023-04-16T12:18:30.530Z,6.43
2023-04-16T12:21:00.547Z,3.50
2023-04-16T12:23:32.830Z,3.35
2023-04-16T12:28:42.810Z,4.97
2023-04-16T12:31:12.879Z,5.05
2023-04-16T12:33:43.664Z,7.53
2023-04-16T12:36:21.170Z,3.08
2023-04-16T12:38:51.315Z,2.80
2023-04-16T12:41:21.291Z,3.05
2023-04-16T12:43:51.337Z,3.85
2023-04-16T12:46:23.200Z,5.18
2023-04-16T12:48:54.159Z,2.35
2023-04-16T12:51:24.403Z,4.10
2023-04-16T12:53:54.744Z,3.08
2023-04-16T12:56:24.853Z,2.97
2023-04-16T12:58:56.329Z,2.33
2023-04-16T13:01:26.578Z,2.03
2023-04-16T13:03:57.352Z,2.58
2023-04-16T13:06:27.677Z,3.42
2023-04-16T13:08:58.284Z,3.40
2023-04-16T13:11:28.360Z,1.92
2023-04-16T13:14:00.392Z,3.20
2023-04-16T13:16:30.370Z,2.67
2023-04-16T13:19:00.507Z,1.95
2023-04-16T13:21:31.423Z,4.28
2023-04-16T13:24:01.841Z,3.67
2023-04-16T13:26:31.843Z,1.60
2023-04-16T13:29:02.039Z,2.72
2023-04-16T13:31:33.259Z,1.65
2023-04-16T13:34:06.185Z,2.50
2023-04-16T13:36:36.520Z,2.38
2023-04-16T13:39:11.857Z,2.20
2023-04-16T13:41:42.797Z,3.13
2023-04-16T13:44:12.815Z,2.25
2023-04-16T13:46:44.920Z,3.22
2023-04-16T13:49:15.927Z,2.75
2023-04-16T13:51:45.996Z,3.38
2023-04-16T13:54:15.862Z,4.90
2023-04-16T13:56:45.778Z,3.63
2023-04-16T13:59:16.957Z,3.33
2023-04-16T14:01:48.183Z,3.92
2023-04-16T14:04:19.096Z,2.35
2023-04-16T14:06:52.303Z,2.83
2023-04-16T14:09:22.471Z,2.63
2023-04-16T14:11:53.092Z,3.08
2023-04-16T14:14:23.088Z,2.95
2023-04-16T14:16:52.979Z,2.20
2023-04-16T14:19:24.185Z,2.60
2023-04-16T14:21:54.203Z,3.53
2023-04-16T14:24:24.042Z,2.17
2023-04-16T14:26:54.090Z,3.38
2023-04-16T14:29:23.970Z,3.75
2023-04-16T14:31:53.922Z,4.13
2023-04-16T14:34:24.756Z,3.47
2023-04-16T14:36:54.830Z,2.65
2023-04-16T14:39:26.520Z,2.30
2023-04-16T14:41:56.550Z,3.85
2023-04-16T14:44:26.748Z,3.35
2023-04-16T14:46:57.011Z,4.38
2023-04-16T14:49:28.551Z,4.13
2023-04-16T14:51:58.563Z,2.65
2023-04-16T14:54:29.274Z,3.50
2023-04-16T14:56:59.514Z,2.72
2023-04-16T14:59:30.006Z,3.15
2023-04-16T15:02:00.767Z,4.70
2023-04-16T15:04:32.040Z,2.95
2023-04-16T15:07:03.354Z,3.65
2023-04-16T15:09:33.572Z,2.97
2023-04-16T15:12:03.830Z,4.22
2023-04-16T15:14:33.841Z,4.78
2023-04-16T15:17:03.949Z,2.30
2023-04-16T15:19:34.009Z,3.92
2023-04-16T15:22:05.010Z,2.72
2023-04-16T15:24:35.053Z,3.42
2023-04-16T15:27:07.646Z,2.78
2023-04-16T15:29:38.647Z,1.48
2023-04-16T15:32:08.657Z,1.92
2023-04-16T15:34:38.666Z,2.13
2023-04-16T15:37:08.854Z,1.67
2023-04-16T15:39:38.871Z,2.10
2023-04-16T15:42:09.306Z,1.98
2023-04-16T15:44:39.336Z,2.00
2023-04-16T15:47:10.808Z,1.55
2023-04-16T15:49:41.024Z,1.30
2023-04-16T15:52:12.905Z,3.47
2023-04-16T15:57:12.645Z,2.35
2023-04-16T15:59:44.658Z,0.82
2023-04-16T16:02:18.281Z,0.60
2023-04-16T16:04:48.533Z,1.20
2023-04-16T16:07:21.751Z,1.00
2023-04-16T16:09:54.197Z,1.05
2023-04-16T16:12:24.633Z,0.70
2023-04-16T16:14:54.821Z,0.88
2023-04-16T16:17:25.039Z,0.73
2023-04-16T16:19:57.483Z,0.52
2023-04-16T16:22:28.953Z,1.75
2023-04-16T16:24:59.625Z,0.52
2023-04-16T16:27:29.772Z,3.08
2023-04-16T16:30:01.895Z,1.20
2023-04-16T16:32:32.079Z,1.92
2023-04-16T16:35:02.149Z,0.60
2023-04-16T16:37:31.979Z,0.45
2023-04-16T16:40:02.328Z,0.60
2023-04-16T16:42:32.841Z,0.47
2023-04-16T16:45:06.471Z,1.02
2023-04-16T16:47:36.644Z,0.88
2023-04-16T16:50:07.433Z,0.38
2023-04-16T16:52:37.398Z,4.22
2023-04-16T16:55:10.794Z,0.90
2023-04-16T16:57:41.291Z,0.60
2023-04-16T17:00:18.082Z,0.90
2023-04-16T17:02:48.712Z,0.50
2023-04-16T17:05:18.868Z,0.73
2023-04-16T17:07:49.041Z,1.23
2023-04-16T17:10:22.147Z,1.00
2023-04-16T17:12:53.998Z,0.50
2023-04-16T17:15:24.062Z,1.00
2023-04-16T17:17:54.241Z,0.95
2023-04-16T17:20:24.084Z,0.90
2023-04-16T17:22:54.100Z,0.95
2023-04-16T17:25:24.412Z,1.45
2023-04-16T17:27:54.399Z,0.98
2023-04-16T17:30:28.916Z,0.57
2023-04-16T17:32:59.138Z,0.90
2023-04-16T17:35:29.218Z,0.68
2023-04-16T17:37:59.205Z,1.30
2023-04-16T17:40:29.287Z,1.08
2023-04-16T17:42:59.115Z,0.93
2023-04-16T17:45:29.307Z,1.00
2023-04-16T17:47:59.142Z,1.02
2023-04-16T17:50:29.430Z,2.00
2023-04-16T17:53:04.526Z,0.70
2023-04-16T17:55:34.582Z,2.42
2023-04-16T17:58:05.462Z,2.47
2023-04-16T18:00:35.485Z,1.13
2023-04-16T18:03:05.879Z,4.35
2023-04-16T18:05:36.119Z,0.68
2023-04-16T18:08:06.230Z,2.25
2023-04-16T18:10:36.292Z,0.73
2023-04-16T18:13:06.093Z,2.17
2023-04-16T18:15:39.616Z,2.78
2023-04-16T18:18:10.090Z,2.22
2023-04-16T18:20:40.212Z,1.55
2023-04-16T18:23:10.354Z,3.55
2023-04-16T18:25:40.465Z,2.13
2023-04-16T18:28:13.634Z,2.38
2023-04-16T18:30:44.354Z,1.23
2023-04-16T18:35:47.488Z,0.80
2023-04-16T18:38:17.458Z,2.05
2023-04-16T18:40:48.172Z,2.35
2023-04-16T18:43:18.284Z,2.45
2023-04-16T18:45:48.100Z,1.80
2023-04-16T18:48:18.081Z,1.30
2023-04-16T18:50:49.917Z,1.60
2023-04-16T18:53:20.151Z,3.60
2023-04-16T18:55:55.330Z,1.05
2023-04-16T18:58:26.319Z,3.33
2023-04-16T19:00:59.635Z,4.60
2023-04-16T19:03:30.987Z,1.15
2023-04-16T19:06:01.304Z,3.58
2023-04-16T19:08:31.339Z,4.40
2023-04-16T19:11:01.224Z,4.10
2023-04-16T19:13:31.667Z,3.65
2023-04-16T19:16:03.308Z,1.88
2023-04-16T19:18:33.411Z,1.60
2023-04-16T19:21:03.567Z,1.90
2023-04-16T19:23:33.598Z,1.35
2023-04-16T19:26:04.602Z,1.77
2023-04-16T19:28:34.583Z,1.40
2023-04-16T19:31:04.579Z,7.22
2023-04-16T19:33:35.545Z,2.78
2023-04-16T19:36:05.775Z,3.33
2023-04-16T19:38:35.776Z,2.58
2023-04-16T19:41:05.800Z,2.15
2023-04-16T19:43:36.620Z,3.17
2023-04-16T19:46:07.178Z,1.77
2023-04-16T19:48:37.529Z,2.17
2023-04-16T19:51:07.564Z,6.57
2023-04-16T19:53:37.629Z,3.97
2023-04-16T19:56:07.776Z,1.55
2023-04-16T19:58:37.952Z,3.22
2023-04-16T20:01:11.749Z,2.03
2023-04-16T20:03:42.223Z,2.85
2023-04-16T20:06:12.507Z,1.00
2023-04-16T20:11:15.571Z,0.98
2023-04-16T20:13:49.007Z,3.00
2023-04-16T20:16:24.037Z,0.70
2023-04-16T20:18:57.192Z,1.10
2023-04-16T20:21:27.440Z,0.70
2023-04-16T20:23:57.594Z,1.35
2023-04-16T20:26:29.590Z,1.50
2023-04-16T20:28:59.699Z,0.65
2023-04-16T20:31:29.739Z,1.98
2023-04-16T20:33:59.791Z,0.60
2023-04-16T20:36:30.034Z,0.32
2023-04-16T20:39:01.043Z,0.52
2023-04-16T20:41:31.446Z,3.03
2023-04-16T20:44:06.407Z,1.15
2023-04-16T20:46:39.759Z,0.60
2023-04-16T20:49:10.067Z,0.82
2023-04-16T20:51:41.336Z,2.08
2023-04-16T20:54:11.583Z,2.03
2023-04-16T20:56:42.003Z,0.80
2023-04-16T20:59:14.528Z,1.13
2023-04-16T21:01:44.779Z,1.65
2023-04-16T21:04:15.059Z,6.25
2023-04-16T21:06:45.149Z,2.90
2023-04-16T21:09:15.365Z,3.50
2023-04-16T21:11:45.400Z,1.15
2023-04-16T21:14:15.310Z,1.02
2023-04-16T21:16:45.550Z,0.52
2023-04-16T21:19:15.565Z,1.17
2023-04-16T21:21:45.649Z,1.17
2023-04-16T21:24:16.776Z,2.88
2023-04-16T21:26:46.841Z,1.80
2023-04-16T21:29:17.119Z,5.65
2023-04-16T21:31:47.225Z,2.65
2023-04-16T21:34:17.328Z,2.92
2023-04-16T21:36:47.796Z,4.95
2023-04-16T21:39:18.715Z,2.22
2023-04-16T21:41:49.200Z,1.95
2023-04-16T21:44:20.115Z,1.80
2023-04-16T21:46:50.944Z,5.03
2023-04-16T21:49:21.039Z,3.17
2023-04-16T21:51:51.569Z,3.03
2023-04-16T21:54:21.854Z,2.17
2023-04-16T21:56:52.073Z,1.90
2023-04-16T21:59:23.033Z,4.28
2023-04-16T22:01:53.362Z,3.72
2023-04-16T22:04:27.268Z,4.35
2023-04-16T22:06:58.352Z,1.58
2023-04-16T22:09:28.355Z,1.63
2023-04-16T22:12:01.530Z,2.67
2023-04-16T22:14:33.043Z,2.25
2023-04-16T22:17:04.648Z,2.55
2023-04-16T22:19:35.918Z,2.10
2023-04-16T22:22:06.123Z,1.92
2023-04-16T22:24:36.121Z,0.93
2023-04-16T22:27:07.130Z,2.65
2023-04-16T22:29:37.325Z,1.48
2023-04-16T22:32:07.770Z,2.47
2023-04-16T22:34:38.036Z,2.92
2023-04-16T22:37:09.282Z,1.50
2023-04-16T22:39:39.632Z,1.83
2023-04-16T22:42:09.737Z,1.90
2023-04-16T22:44:39.865Z,1.63
2023-04-16T22:47:09.900Z,1.88
2023-04-16T22:49:39.982Z,2.97
2023-04-16T22:52:10.029Z,2.50
2023-04-16T22:54:39.998Z,1.73
2023-04-16T22:57:10.065Z,1.65
2023-04-16T22:59:40.151Z,2.17
2023-04-16T23:02:11.255Z,2.35
2023-04-16T23:04:41.443Z,1.25
2023-04-16T23:07:12.643Z,2.25
2023-04-16T23:09:42.893Z,1.52
2023-04-16T23:12:12.932Z,1.92
2023-04-16T23:14:46.972Z,4.53
2023-04-16T23:17:17.164Z,2.40
2023-04-16T23:19:47.188Z,1.98
2023-04-16T23:22:17.237Z,1.40
2023-04-16T23:24:47.557Z,4.10
2023-04-16T23:27:17.681Z,1.77
2023-04-16T23:29:47.548Z,1.77
2023-04-16T23:32:17.563Z,2.25
2023-04-16T23:34:47.483Z,4.38
2023-04-16T23:37:17.731Z,2.30
2023-04-16T23:39:47.945Z,2.03
2023-04-16T23:42:18.176Z,3.67
2023-04-16T23:44:48.153Z,1.65
2023-04-16T23:47:18.413Z,1.20
2023-04-16T23:49:48.449Z,3.30
2023-04-16T23:52:18.362Z,3.40
2023-04-16T23:54:48.618Z,2.25
2023-04-16T23:57:18.704Z,2.40
2023-04-16T23:59:48.565Z,2.67
